Time;durP1;ratioP1;P1;durP2;ratioP2;P2;SDS_P1;SDS_P2;PMS_P1;PMS_P2;Temp;Humidity;BMP_temperature;BMP_pressure;BME280_temperature;BME280_humidity;BME280_pressure;Samples;Min_cycle;Max_cycle;Signal;HPM_P1;HPM_P2
2024/01/14 00:00:11;;;;;;;29.60;15.57;;;4.60;99.90;;;;;;4981942;28;20129;-86
2024/01/14 00:02:41;;;;;;;28.65;15.25;;;4.60;99.90;;;;;;4981362;28;20058;-86
2024/01/14 00:05:08;;;;;;;23.98;14.43;;;4.60;99.90;;;;;;4981882;28;20392;-85
2024/01/14 00:07:36;;;;;;;24.02;14.60;;;4.60;99.90;;;;;;4981903;28;20030;-87
2024/01/14 00:10:03;;;;;;;25.30;13.57;;;4.60;99.90;;;;;;4981979;28;20030;-88
2024/01/14 00:12:30;;;;;;;22.42;13.18;;;4.60;99.90;;;;;;4982283;28;20045;-86
2024/01/14 00:14:57;;;;;;;23.15;14.18;;;4.60;99.90;;;;;;4981766;28;20058;-86
2024/01/14 00:17:23;;;;;;;26.45;13.48;;;4.60;99.90;;;;;;4981828;28;20037;-87
2024/01/14 00:19:51;;;;;;;20.75;13.07;;;4.60;99.90;;;;;;4981873;28;20083;-87
2024/01/14 00:22:18;;;;;;;22.80;12.98;;;4.60;99.90;;;;;;4978547;28;20058;-86
2024/01/14 00:24:44;;;;;;;20.42;12.75;;;4.70;99.90;;;;;;4978396;28;20022;-87
2024/01/14 00:27:11;;;;;;;23.85;12.52;;;4.60;99.90;;;;;;4978326;28;20077;-87
2024/01/14 00:29:37;;;;;;;20.35;12.60;;;4.70;99.90;;;;;;4978283;28;20034;-86
2024/01/14 00:32:04;;;;;;;23.88;12.43;;;4.60;99.90;;;;;;4978753;28;20045;-88
2024/01/14 00:34:30;;;;;;;19.95;12.05;;;4.60;99.90;;;;;;4978786;28;20092;-87
2024/01/14 00:36:56;;;;;;;25.25;12.63;;;4.60;99.90;;;;;;4988024;28;20025;-87
2024/01/14 00:39:23;;;;;;;23.98;12.43;;;4.60;99.90;;;;;;4989688;28;20034;-86
2024/01/14 00:41:49;;;;;;;19.85;12.48;;;4.60;99.90;;;;;;4978473;28;20030;-86
2024/01/14 00:44:16;;;;;;;25.55;12.65;;;4.60;99.90;;;;;;4978969;28;20030;-87
2024/01/14 00:46:42;;;;;;;17.60;11.85;;;4.60;99.90;;;;;;4967415;28;20026;-86
2024/01/14 00:49:08;;;;;;;21.42;13.18;;;4.60;99.90;;;;;;4981211;28;20132;-87
2024/01/14 00:51:35;;;;;;;23.58;12.98;;;4.60;99.90;;;;;;4981034;28;20061;-86
2024/01/14 00:54:02;;;;;;;23.48;12.52;;;4.60;99.90;;;;;;4981241;28;20029;-86
2024/01/14 00:56:28;;;;;;;23.33;13.40;;;4.60;99.90;;;;;;4980836;28;20042;-87
2024/01/14 00:58:55;;;;;;;21.40;13.40;;;4.60;99.90;;;;;;4990313;28;20026;-87
2024/01/14 01:01:21;;;;;;;17.67;12.02;;;4.60;99.90;;;;;;4961576;28;20117;-87
2024/01/14 01:03:47;;;;;;;25.27;13.57;;;4.60;99.90;;;;;;4977753;28;20069;-87
2024/01/14 01:06:14;;;;;;;23.85;13.13;;;4.60;99.90;;;;;;4961604;28;20061;-86
2024/01/14 01:08:40;;;;;;;19.00;12.70;;;4.60;99.90;;;;;;4961712;28;20040;-86
2024/01/14 01:11:07;;;;;;;25.17;12.75;;;4.60;99.90;;;;;;4967789;28;20502;-86
2024/01/14 01:13:36;;;;;;;21.48;13.02;;;4.60;99.90;;;;;;4980945;28;20394;-87
2024/01/14 01:16:06;;;;;;;25.27;13.02;;;4.50;99.90;;;;;;4980798;28;20033;-87
2024/01/14 01:18:32;;;;;;;24.83;12.55;;;4.50;99.90;;;;;;4997107;28;20080;-87
2024/01/14 01:20:59;;;;;;;25.17;13.40;;;4.50;99.90;;;;;;4981109;28;20058;-87
2024/01/14 01:23:25;;;;;;;21.40;12.32;;;4.50;99.90;;;;;;4980873;28;20112;-88
2024/01/14 01:25:52;;;;;;;17.75;12.23;;;4.50;99.90;;;;;;4980653;28;20034;-88
2024/01/14 01:28:18;;;;;;;23.05;12.57;;;4.50;99.90;;;;;;4980985;28;20038;-89
2024/01/14 01:30:45;;;;;;;18.15;11.90;;;4.50;99.90;;;;;;4980979;28;20053;-88
2024/01/14 01:33:11;;;;;;;23.30;13.38;;;4.50;99.90;;;;;;4980999;28;20049;-88
2024/01/14 01:35:37;;;;;;;20.10;12.20;;;4.50;99.90;;;;;;4977317;28;20121;-88
2024/01/14 01:38:04;;;;;;;21.08;11.93;;;4.50;99.90;;;;;;4961564;28;20061;-88
2024/01/14 01:40:31;;;;;;;20.92;11.73;;;4.50;99.90;;;;;;4977452;28;20042;-87
2024/01/14 01:42:57;;;;;;;18.55;12.40;;;4.50;99.90;;;;;;4961040;28;20034;-88
2024/01/14 01:45:24;;;;;;;16.67;11.75;;;4.60;99.90;;;;;;4961303;28;20543;-88
2024/01/14 01:47:50;;;;;;;18.05;12.05;;;4.60;99.90;;;;;;4971199;28;20042;-88
2024/01/14 01:50:17;;;;;;;15.85;11.32;;;4.60;99.90;;;;;;4977359;28;20026;-86
2024/01/14 01:52:44;;;;;;;18.55;12.05;;;4.60;99.90;;;;;;4977294;28;20045;-88
2024/01/14 01:55:12;;;;;;;18.63;11.82;;;4.60;99.90;;;;;;4977248;28;20048;-87
2024/01/14 01:57:39;;;;;;;16.15;11.95;;;4.60;99.90;;;;;;4961292;28;20435;-87
2024/01/14 02:00:08;;;;;;;15.13;12.48;;;4.70;99.90;;;;;;4994035;28;20450;-88
2024/01/14 02:02:42;;;;;;;21.15;12.57;;;4.70;99.90;;;;;;4993130;28;20078;-87
2024/01/14 02:05:10;;;;;;;20.25;11.80;;;4.70;99.90;;;;;;4993476;28;20026;-87
2024/01/14 02:07:39;;;;;;;17.17;11.93;;;4.70;99.90;;;;;;4977504;28;20037;-87
2024/01/14 02:10:06;;;;;;;13.32;11.60;;;4.70;99.90;;;;;;4993395;28;20076;-88
2024/01/14 02:12:33;;;;;;;19.10;12.68;;;4.70;99.90;;;;;;4977875;28;20030;-87
2024/01/14 02:15:03;;;;;;;20.13;11.93;;;4.70;99.90;;;;;;4989334;28;20015;-87
2024/01/14 02:17:30;;;;;;;19.73;12.02;;;4.70;99.90;;;;;;4991518;28;20173;-87
2024/01/14 02:19:56;;;;;;;13.68;11.88;;;4.60;99.90;;;;;;4993604;28;20036;-87
2024/01/14 02:22:28;;;;;;;14.15;11.18;;;4.60;99.90;;;;;;4996701;28;20073;-87
2024/01/14 02:24:55;;;;;;;12.95;11.57;;;4.60;99.90;;;;;;4997209;28;20029;-87
2024/01/14 02:27:28;;;;;;;14.30;11.25;;;4.60;99.90;;;;;;4980602;28;20033;-88
2024/01/14 02:29:56;;;;;;;15.63;11.73;;;4.50;99.90;;;;;;4996907;28;20033;-88
2024/01/14 02:32:22;;;;;;;13.15;10.82;;;4.50;99.90;;;;;;4980550;28;20030;-87
2024/01/14 02:34:49;;;;;;;20.85;11.65;;;4.40;99.90;;;;;;4996773;28;20033;-86
2024/01/14 02:37:16;;;;;;;13.75;11.38;;;4.50;99.90;;;;;;4980174;28;20176;-86
2024/01/14 02:39:42;;;;;;;14.60;11.85;;;4.50;99.90;;;;;;4980307;28;20483;-86
2024/01/14 02:42:09;;;;;;;12.52;11.18;;;4.50;99.90;;;;;;4978237;28;20089;-87
2024/01/14 02:44:35;;;;;;;13.65;11.82;;;4.50;99.90;;;;;;4960870;28;20109;-89
2024/01/14 02:47:02;;;;;;;14.63;11.23;;;4.50;99.90;;;;;;4960955;28;20026;-87
2024/01/14 02:49:28;;;;;;;14.38;10.75;;;4.50;99.90;;;;;;4960902;28;20031;-87
2024/01/14 02:51:54;;;;;;;12.40;11.07;;;4.50;99.90;;;;;;4960752;28;20050;-87
2024/01/14 02:54:21;;;;;;;13.70;11.00;;;4.50;99.90;;;;;;4960999;28;20035;-87
2024/01/14 02:56:47;;;;;;;13.68;11.13;;;4.50;99.90;;;;;;4960757;28;20500;-87
2024/01/14 02:59:13;;;;;;;13.95;11.25;;;4.50;99.90;;;;;;4960780;28;20065;-87
2024/01/14 03:01:46;;;;;;;15.20;11.48;;;4.50;99.90;;;;;;4960587;28;20564;-86
2024/01/14 03:04:12;;;;;;;18.63;12.18;;;4.40;99.90;;;;;;4978426;28;20034;-88
2024/01/14 03:06:39;;;;;;;13.60;11.20;;;4.40;99.90;;;;;;4980020;28;20467;-88
2024/01/14 03:09:09;;;;;;;12.18;10.98;;;4.40;99.90;;;;;;4979845;28;20050;-87
2024/01/14 03:11:36;;;;;;;15.10;11.27;;;4.30;99.90;;;;;;4979645;28;20085;-88
2024/01/14 03:14:02;;;;;;;14.35;11.20;;;4.30;99.90;;;;;;4963554;28;20046;-88
2024/01/14 03:16:28;;;;;;;16.60;11.27;;;4.30;99.90;;;;;;4976485;28;20039;-87
2024/01/14 03:18:55;;;;;;;14.27;11.50;;;4.30;99.90;;;;;;4960308;28;20022;-87
2024/01/14 03:21:21;;;;;;;14.68;11.60;;;4.20;99.90;;;;;;4976425;28;20037;-87
2024/01/14 03:23:48;;;;;;;15.98;11.88;;;4.10;99.90;;;;;;4978119;28;20560;-88
2024/01/14 03:26:15;;;;;;;16.48;11.52;;;4.10;99.90;;;;;;4940365;29;20043;-88
2024/01/14 03:28:41;;;;;;;16.58;11.35;;;4.10;99.90;;;;;;4940244;28;20063;-87
2024/01/14 03:31:12;;;;;;;14.27;11.32;;;4.10;99.90;;;;;;4938963;29;20122;-88
2024/01/14 03:33:39;;;;;;;15.85;10.93;;;4.10;99.90;;;;;;4968199;28;20035;-87
2024/01/14 03:36:05;;;;;;;15.20;11.30;;;4.10;99.90;;;;;;4990804;28;20125;-87
2024/01/14 03:38:31;;;;;;;13.70;11.35;;;3.90;99.90;;;;;;4958888;28;20123;-87
2024/01/14 03:40:58;;;;;;;18.30;11.38;;;3.80;99.90;;;;;;4959102;28;20026;-87
2024/01/14 03:43:27;;;;;;;16.35;12.02;;;3.70;99.90;;;;;;4959125;28;20122;-87
2024/01/14 03:45:53;;;;;;;16.45;11.30;;;3.60;99.90;;;;;;4974608;28;20027;-87
2024/01/14 03:48:19;;;;;;;14.98;11.18;;;3.50;99.90;;;;;;4939964;29;20050;-87
2024/01/14 03:50:46;;;;;;;19.20;11.55;;;3.40;99.90;;;;;;4947101;28;20020;-87
2024/01/14 03:53:13;;;;;;;16.60;11.57;;;3.30;99.90;;;;;;4968777;28;20117;-88
2024/01/14 03:55:39;;;;;;;20.85;11.00;;;3.20;99.90;;;;;;4982601;28;20498;-86
2024/01/14 03:58:06;;;;;;;16.88;10.75;;;3.20;99.90;;;;;;4978884;28;20035;-87
2024/01/14 04:00:32;;;;;;;17.15;10.77;;;3.20;99.90;;;;;;4978863;28;20550;-87
2024/01/14 04:03:00;;;;;;;15.10;10.68;;;3.20;99.90;;;;;;4978549;28;20089;-87
2024/01/14 04:05:27;;;;;;;13.13;10.80;;;3.10;99.90;;;;;;4978867;28;20397;-87
2024/01/14 04:07:53;;;;;;;16.17;10.52;;;3.10;99.90;;;;;;4978694;28;20034;-87
2024/01/14 04:10:23;;;;;;;12.68;9.70;;;3.10;99.90;;;;;;4978676;28;20394;-88
2024/01/14 04:12:49;;;;;;;18.58;10.43;;;3.10;99.90;;;;;;4977136;28;20036;-87
2024/01/14 04:15:19;;;;;;;18.65;10.88;;;3.10;99.90;;;;;;4981790;28;20539;-87
2024/01/14 04:17:46;;;;;;;19.08;10.68;;;3.10;99.90;;;;;;4962477;28;20066;-87
2024/01/14 04:20:12;;;;;;;16.08;10.23;;;3.10;99.90;;;;;;4962464;28;20023;-87
2024/01/14 04:22:39;;;;;;;15.98;10.43;;;3.00;99.90;;;;;;4962584;28;20054;-88
2024/01/14 04:25:08;;;;;;;18.75;11.10;;;2.80;99.90;;;;;;4962439;28;20023;-87
2024/01/14 04:27:37;;;;;;;17.63;10.60;;;2.70;99.90;;;;;;4962475;28;20031;-87
2024/01/14 04:30:05;;;;;;;17.75;12.07;;;2.70;99.90;;;;;;4963137;28;20106;-87
2024/01/14 04:32:32;;;;;;;19.95;11.77;;;2.60;99.90;;;;;;4978119;28;20030;-88
2024/01/14 04:34:58;;;;;;;22.73;12.18;;;2.50;99.90;;;;;;4962121;28;20026;-87
2024/01/14 04:37:24;;;;;;;23.83;12.23;;;2.40;99.90;;;;;;4978145;28;20073;-87
2024/01/14 04:39:50;;;;;;;21.95;12.63;;;2.40;99.90;;;;;;4962120;28;20026;-87
2024/01/14 04:42:17;;;;;;;20.88;12.27;;;2.30;99.90;;;;;;4961751;28;20033;-88
2024/01/14 04:44:43;;;;;;;18.27;12.18;;;2.30;99.90;;;;;;4961772;28;20112;-87
2024/01/14 04:47:12;;;;;;;25.80;11.65;;;2.30;99.90;;;;;;4980105;28;20395;-87
2024/01/14 04:49:39;;;;;;;23.38;12.07;;;2.30;99.90;;;;;;4981190;28;20026;-87
2024/01/14 04:52:05;;;;;;;20.42;10.57;;;2.40;99.90;;;;;;4981214;28;20149;-87
2024/01/14 04:54:32;;;;;;;22.75;11.07;;;2.50;99.90;;;;;;4981115;28;20030;-87
2024/01/14 04:56:58;;;;;;;19.92;11.07;;;2.60;99.90;;;;;;4980700;28;20038;-88
2024/01/14 04:59:24;;;;;;;17.55;10.93;;;2.60;99.90;;;;;;4961696;28;20623;-88
2024/01/14 05:01:51;;;;;;;15.27;10.48;;;2.70;99.90;;;;;;4958286;28;20049;-88
2024/01/14 05:04:17;;;;;;;18.10;11.20;;;2.70;99.90;;;;;;4974446;28;20031;-87
2024/01/14 05:06:43;;;;;;;22.15;10.93;;;2.80;99.90;;;;;;4974567;28;20031;-86
2024/01/14 05:09:13;;;;;;;17.15;10.93;;;2.70;99.90;;;;;;4991986;28;20053;-87
2024/01/14 05:11:40;;;;;;;18.88;10.57;;;2.80;99.90;;;;;;4977830;28;20030;-88
2024/01/14 05:14:06;;;;;;;19.10;9.95;;;2.80;99.90;;;;;;4993681;28;20057;-87
2024/01/14 05:16:32;;;;;;;17.48;10.05;;;2.80;99.90;;;;;;4977798;28;20077;-87
2024/01/14 05:18:58;;;;;;;16.70;10.85;;;2.80;99.90;;;;;;4977536;28;20030;-87
2024/01/14 05:21:25;;;;;;;23.83;10.60;;;2.90;99.90;;;;;;4993911;28;20034;-86
2024/01/14 05:23:51;;;;;;;21.98;9.88;;;2.90;99.90;;;;;;4977538;28;20506;-88
2024/01/14 05:26:18;;;;;;;18.05;10.82;;;2.80;99.90;;;;;;4977574;28;20121;-87
2024/01/14 05:28:44;;;;;;;19.85;10.82;;;2.80;99.90;;;;;;4992595;28;20034;-87
2024/01/14 05:31:10;;;;;;;18.63;10.20;;;2.80;99.90;;;;;;4978877;28;20423;-88
2024/01/14 05:33:37;;;;;;;20.05;10.15;;;2.90;99.90;;;;;;4993485;28;20030;-88
2024/01/14 05:36:04;;;;;;;20.45;10.63;;;2.80;99.90;;;;;;4977419;28;20049;-87
2024/01/14 05:38:30;;;;;;;19.20;9.70;;;2.80;99.90;;;;;;4993699;28;20065;-87
2024/01/14 05:40:56;;;;;;;22.98;10.52;;;2.80;99.90;;;;;;4977311;28;20031;-87
2024/01/14 05:43:23;;;;;;;16.00;10.00;;;2.80;99.90;;;;;;4993423;28;20730;-88
2024/01/14 05:45:49;;;;;;;17.45;9.98;;;2.70;99.90;;;;;;4977241;28;20026;-87
2024/01/14 05:48:19;;;;;;;15.88;10.05;;;2.70;99.90;;;;;;4960997;28;20026;-88
2024/01/14 05:50:46;;;;;;;19.25;10.07;;;2.60;99.90;;;;;;4963817;28;20126;-85
2024/01/14 05:53:12;;;;;;;17.50;10.30;;;2.60;99.90;;;;;;4959476;28;20465;-85
2024/01/14 05:55:39;;;;;;;16.38;9.90;;;2.60;99.90;;;;;;4978349;28;20039;-86
2024/01/14 05:58:06;;;;;;;14.65;9.43;;;2.50;99.90;;;;;;4985660;28;20125;-86
2024/01/14 06:00:32;;;;;;;18.80;10.00;;;2.40;99.90;;;;;;4981031;28;20034;-86
2024/01/14 06:02:59;;;;;;;22.05;10.50;;;2.40;99.90;;;;;;4981009;28;20046;-87
2024/01/14 06:05:25;;;;;;;19.35;10.35;;;2.30;99.90;;;;;;4997113;28;20034;-86
2024/01/14 06:07:51;;;;;;;15.07;9.48;;;2.30;99.90;;;;;;4980939;28;20109;-87
2024/01/14 06:10:18;;;;;;;23.95;10.52;;;2.30;99.90;;;;;;4981025;28;20026;-86
2024/01/14 06:12:44;;;;;;;19.90;10.98;;;2.30;99.90;;;;;;4981019;28;20117;-86
2024/01/14 06:15:13;;;;;;;20.67;10.70;;;2.20;99.90;;;;;;4996998;28;20394;-86
2024/01/14 06:17:39;;;;;;;16.85;10.32;;;2.20;99.90;;;;;;4980980;28;20027;-86
2024/01/14 06:20:08;;;;;;;21.15;11.68;;;2.20;99.90;;;;;;4997017;28;20030;-86
2024/01/14 06:22:35;;;;;;;15.52;11.20;;;2.20;99.90;;;;;;4980578;28;20073;-86
2024/01/14 06:25:02;;;;;;;15.20;10.52;;;2.30;99.90;;;;;;4980532;28;20038;-87
2024/01/14 06:27:28;;;;;;;19.77;10.85;;;2.30;99.90;;;;;;4978509;28;20480;-86
2024/01/14 06:29:55;;;;;;;16.65;10.23;;;2.40;99.90;;;;;;4961383;28;20515;-87
2024/01/14 06:32:21;;;;;;;19.17;11.13;;;2.30;99.90;;;;;;4961320;28;20031;-87
2024/01/14 06:34:48;;;;;;;17.67;11.00;;;2.30;99.90;;;;;;4961358;28;20035;-86
2024/01/14 06:37:14;;;;;;;14.95;11.10;;;2.30;99.90;;;;;;4961187;28;20046;-86
2024/01/14 06:39:41;;;;;;;20.40;10.95;;;2.20;99.90;;;;;;4961027;28;20039;-87
2024/01/14 06:42:10;;;;;;;19.73;11.20;;;2.30;99.90;;;;;;4960947;28;20031;-86
2024/01/14 06:44:40;;;;;;;18.58;11.43;;;2.30;99.90;;;;;;4961179;28;20029;-87
2024/01/14 06:47:06;;;;;;;19.20;11.25;;;2.40;99.90;;;;;;4960759;28;20062;-87
2024/01/14 06:49:33;;;;;;;19.05;11.18;;;2.60;99.90;;;;;;4961003;28;20037;-86
2024/01/14 06:51:59;;;;;;;18.08;11.18;;;2.80;99.90;;;;;;4960920;28;20031;-87
2024/01/14 06:54:26;;;;;;;18.65;12.25;;;3.00;99.90;;;;;;4960908;28;20085;-87
2024/01/14 06:56:53;;;;;;;18.75;12.90;;;3.20;99.90;;;;;;4961027;28;20051;-86
2024/01/14 06:59:21;;;;;;;16.60;14.50;;;3.50;99.90;;;;;;4960937;28;20042;-89
2024/01/14 07:01:48;;;;;;;17.83;15.93;;;3.60;99.90;;;;;;4961287;28;20055;-83
2024/01/14 07:04:15;;;;;;;18.10;16.40;;;3.80;99.90;;;;;;4974681;28;20074;-88
2024/01/14 07:06:42;;;;;;;21.23;19.02;;;3.90;99.90;;;;;;4968582;28;20031;-87
2024/01/14 07:09:10;;;;;;;21.38;19.30;;;4.00;99.90;;;;;;4960944;28;20034;-87
2024/01/14 07:11:37;;;;;;;23.05;20.38;;;4.40;99.90;;;;;;4960096;28;20033;-88
2024/01/14 07:14:04;;;;;;;24.27;21.02;;;4.50;99.90;;;;;;4975998;28;20027;-88
2024/01/14 07:16:30;;;;;;;22.40;20.35;;;4.80;99.90;;;;;;4970577;28;20030;-89
2024/01/14 07:18:57;;;;;;;23.65;21.40;;;5.00;99.90;;;;;;4963400;28;20030;-86
2024/01/14 07:21:23;;;;;;;23.42;21.38;;;5.20;99.90;;;;;;4978825;28;20121;-86
2024/01/14 07:23:50;;;;;;;25.00;22.58;;;5.40;99.90;;;;;;4979393;28;20109;-85
2024/01/14 07:26:18;;;;;;;25.50;23.08;;;5.60;99.90;;;;;;4963018;28;20028;-85
2024/01/14 07:28:44;;;;;;;26.65;24.05;;;5.90;99.90;;;;;;4974281;28;20023;-81
2024/01/14 07:32:00;;;;;;;28.80;25.98;;;6.20;99.90;;;;;;4976359;28;20029;-86
2024/01/14 07:34:46;;;;;;;29.88;27.23;;;6.40;99.90;;;;;;4958826;28;20129;-85
2024/01/14 07:37:13;;;;;;;30.23;27.17;;;6.40;99.90;;;;;;4958572;28;20125;-85
2024/01/14 07:39:39;;;;;;;28.35;26.10;;;6.70;99.90;;;;;;4976222;28;20098;-84
2024/01/14 07:42:06;;;;;;;28.08;25.38;;;6.70;99.90;;;;;;4977284;28;20042;-84
2024/01/14 07:44:32;;;;;;;26.75;23.95;;;6.90;99.90;;;;;;4994231;28;20033;-84
2024/01/14 07:46:58;;;;;;;26.67;23.98;;;7.10;99.90;;;;;;4978071;28;20034;-84
2024/01/14 07:49:25;;;;;;;27.23;24.40;;;7.30;99.90;;;;;;4994535;28;20030;-85
2024/01/14 07:51:54;;;;;;;27.50;24.55;;;7.70;99.90;;;;;;4975208;28;20459;-84
2024/01/14 07:54:21;;;;;;;28.33;25.48;;;8.00;99.90;;;;;;4974721;28;20030;-85
2024/01/14 07:56:48;;;;;;;31.02;26.45;;;8.20;99.90;;;;;;4984818;28;20132;-86
2024/01/14 07:59:20;;;;;;;29.30;26.17;;;8.60;99.90;;;;;;4979059;28;20057;-85
2024/01/14 08:01:51;;;;;;;28.60;25.98;;;8.80;99.90;;;;;;4956645;28;20058;-86
2024/01/14 08:04:17;;;;;;;29.92;27.02;;;8.90;99.90;;;;;;4970178;28;20117;-86
2024/01/14 08:06:43;;;;;;;27.98;25.45;;;9.10;99.90;;;;;;4995987;28;20027;-86
2024/01/14 08:09:09;;;;;;;30.00;27.33;;;9.20;99.90;;;;;;4972166;28;20018;-86
2024/01/14 08:11:36;;;;;;;28.92;25.92;;;9.40;99.90;;;;;;4981921;28;20107;-85
2024/01/14 08:14:02;;;;;;;29.60;26.70;;;9.60;99.90;;;;;;4981719;28;20057;-86
2024/01/14 08:16:29;;;;;;;30.10;26.88;;;9.80;99.90;;;;;;4980986;28;20069;-86
2024/01/14 08:18:55;;;;;;;31.60;28.52;;;10.00;99.90;;;;;;4978506;28;20022;-86
2024/01/14 08:21:25;;;;;;;31.55;26.13;;;10.10;99.90;;;;;;4978789;28;20041;-87
2024/01/14 08:23:51;;;;;;;26.42;24.20;;;10.20;99.90;;;;;;4972538;28;20116;-87
2024/01/14 08:26:21;;;;;;;31.42;28.38;;;10.20;99.90;;;;;;4981767;28;20053;-85
2024/01/14 08:28:47;;;;;;;31.73;28.70;;;10.40;99.90;;;;;;4981670;28;20387;-88
2024/01/14 08:31:14;;;;;;;32.63;29.85;;;10.30;99.90;;;;;;4981811;28;20034;-87
2024/01/14 08:33:43;;;;;;;29.80;27.50;;;10.40;99.90;;;;;;4978262;28;20030;-85
2024/01/14 08:36:11;;;;;;;32.45;29.95;;;10.50;99.90;;;;;;4962024;28;20038;-85
2024/01/14 08:38:38;;;;;;;30.88;28.50;;;10.60;99.90;;;;;;4978124;28;20030;-86
2024/01/14 08:41:06;;;;;;;29.80;27.70;;;10.60;99.90;;;;;;4962069;28;20034;-88
2024/01/14 08:43:35;;;;;;;27.92;25.75;;;10.70;99.90;;;;;;4998900;28;20065;-87
2024/01/14 08:46:02;;;;;;;27.33;25.13;;;10.80;99.90;;;;;;4966840;28;20034;-86
2024/01/14 08:48:29;;;;;;;27.13;25.13;;;10.80;99.90;;;;;;4978171;28;20026;-87
2024/01/14 08:50:56;;;;;;;29.98;27.15;;;10.90;99.90;;;;;;4994116;28;20049;-86
2024/01/14 08:53:23;;;;;;;30.50;27.65;;;10.90;99.90;;;;;;4978103;28;20026;-86
2024/01/14 08:55:50;;;;;;;30.52;27.42;;;11.00;99.90;;;;;;4993683;28;20475;-86
2024/01/14 08:58:16;;;;;;;28.58;26.02;;;11.00;99.90;;;;;;4981023;28;20025;-86
2024/01/14 09:00:43;;;;;;;28.38;25.98;;;11.20;99.90;;;;;;4980834;28;20141;-85
2024/01/14 09:03:09;;;;;;;27.73;25.13;;;11.30;99.90;;;;;;4980809;28;20045;-88
2024/01/14 09:05:36;;;;;;;29.13;26.58;;;11.30;99.90;;;;;;4980866;28;20044;-88
2024/01/14 09:08:05;;;;;;;30.42;27.77;;;11.40;99.90;;;;;;4977536;28;20369;-86
2024/01/14 09:10:32;;;;;;;30.25;27.58;;;11.50;99.90;;;;;;4971974;28;20031;-87
2024/01/14 09:12:58;;;;;;;27.98;25.75;;;11.60;99.90;;;;;;4977305;28;20037;-86
2024/01/14 09:15:25;;;;;;;29.73;27.23;;;11.70;99.90;;;;;;4977484;28;20062;-86
2024/01/14 09:17:51;;;;;;;28.42;26.13;;;11.70;99.90;;;;;;4977540;28;20030;-87
2024/01/14 09:20:21;;;;;;;28.50;26.40;;;11.70;99.90;;;;;;4980831;28;20026;-88
2024/01/14 09:22:47;;;;;;;28.50;26.35;;;11.80;99.90;;;;;;4980869;28;20487;-87
2024/01/14 09:25:15;;;;;;;29.65;27.10;;;11.80;99.90;;;;;;4981004;28;20084;-88
2024/01/14 09:27:41;;;;;;;30.88;27.88;;;11.80;99.90;;;;;;4980611;28;20483;-87
2024/01/14 09:30:08;;;;;;;29.27;26.60;;;11.80;99.90;;;;;;4980496;28;20026;-84
2024/01/14 09:32:35;;;;;;;28.20;25.90;;;11.90;99.90;;;;;;4995934;28;20037;-87
2024/01/14 09:35:01;;;;;;;32.42;29.23;;;11.80;99.90;;;;;;4996669;28;20041;-86
2024/01/14 09:37:28;;;;;;;29.20;26.88;;;11.80;99.90;;;;;;4980490;28;20042;-86
2024/01/14 09:39:54;;;;;;;30.50;28.20;;;11.90;99.90;;;;;;4980651;28;20037;-87
2024/01/14 09:42:35;;;;;;;32.63;29.88;;;11.90;99.90;;;;;;4980005;28;20041;-86
2024/01/14 09:45:05;;;;;;;31.45;28.80;;;12.10;99.90;;;;;;4977088;28;20030;-88
2024/01/14 09:47:33;;;;;;;30.38;28.38;;;12.10;99.90;;;;;;4970908;28;20030;-87
2024/01/14 09:50:00;;;;;;;30.63;28.40;;;12.00;99.90;;;;;;4961085;28;20539;-85
2024/01/14 09:52:31;;;;;;;30.77;28.23;;;12.10;99.90;;;;;;4979957;28;20109;-85
2024/01/14 09:54:57;;;;;;;32.70;30.05;;;12.20;99.90;;;;;;4978295;28;20029;-85
2024/01/14 09:57:24;;;;;;;32.35;29.85;;;12.00;99.90;;;;;;4979626;28;20046;-86
2024/01/14 09:59:52;;;;;;;31.67;29.60;;;12.00;99.90;;;;;;4980721;28;20030;-86
2024/01/14 10:02:19;;;;;;;32.20;30.13;;;12.00;99.90;;;;;;4976863;28;20051;-87
2024/01/14 10:04:46;;;;;;;32.28;30.17;;;12.00;99.90;;;;;;4977781;28;20488;-87
2024/01/14 10:07:13;;;;;;;34.28;31.73;;;11.90;99.90;;;;;;4979793;28;20017;-86
2024/01/14 10:09:42;;;;;;;33.58;30.85;;;11.90;99.90;;;;;;4979886;28;20030;-84
2024/01/14 10:12:13;;;;;;;33.25;30.85;;;12.00;99.90;;;;;;4979571;28;20060;-85
2024/01/14 10:14:58;;;;;;;33.65;31.27;;;12.00;99.90;;;;;;4980001;28;20025;-85
2024/01/14 10:17:26;;;;;;;32.80;30.45;;;12.10;99.90;;;;;;4979692;28;20038;-84
2024/01/14 10:19:55;;;;;;;33.92;31.50;;;12.20;99.90;;;;;;4976884;28;20029;-85
2024/01/14 10:22:22;;;;;;;33.13;30.83;;;12.30;99.90;;;;;;4976332;28;20050;-86
2024/01/14 10:24:57;;;;;;;34.38;31.67;;;12.40;99.90;;;;;;4962442;28;20058;-86
2024/01/14 10:27:26;;;;;;;34.40;31.83;;;12.30;99.90;;;;;;4960680;28;20026;-86
2024/01/14 10:29:52;;;;;;;35.30;32.95;;;12.20;99.90;;;;;;4960812;28;20065;-85
2024/01/14 10:32:20;;;;;;;34.67;32.20;;;12.20;99.90;;;;;;4968370;28;20108;-90
2024/01/14 10:34:52;;;;;;;33.13;30.92;;;12.20;99.90;;;;;;4980093;28;20025;-86
2024/01/14 10:37:26;;;;;;;34.17;31.73;;;12.20;99.90;;;;;;4980121;28;20064;-90
2024/01/14 10:39:57;;;;;;;;;;;12.20;99.90;;;;;;4979457;28;20022;-86
2024/01/14 10:42:26;;;;;;;33.85;31.38;;;12.30;99.90;;;;;;4979709;28;19909;-85
2024/01/14 10:44:53;;;;;;;33.35;31.08;;;12.30;99.90;;;;;;4996005;28;20030;-84
2024/01/14 10:47:21;;;;;;;33.65;31.50;;;12.30;99.90;;;;;;4995817;28;20026;-85
2024/01/14 10:49:51;;;;;;;35.58;33.25;;;12.40;99.90;;;;;;4998746;28;20025;-84
2024/01/14 10:52:21;;;;;;;35.75;33.38;;;12.50;99.90;;;;;;4982852;28;20022;-84
2024/01/14 10:54:49;;;;;;;35.58;32.90;;;12.50;99.90;;;;;;4979263;28;20042;-83
2024/01/14 10:57:22;;;;;;;36.60;34.00;;;12.50;99.90;;;;;;4972387;28;20050;-82
2024/01/14 10:59:51;;;;;;;35.88;33.47;;;12.60;99.90;;;;;;4998333;28;20030;-83
2024/01/14 11:02:17;;;;;;;38.15;35.47;;;12.70;99.90;;;;;;4981533;28;20081;-82
2024/01/14 11:04:45;;;;;;;36.55;33.90;;;12.80;99.90;;;;;;4981758;28;20034;-82
2024/01/14 11:07:13;;;;;;;37.22;34.67;;;12.90;99.90;;;;;;4981684;28;20040;-82
2024/01/14 11:09:43;;;;;;;37.17;34.70;;;12.90;99.90;;;;;;4980192;28;20432;-81
2024/01/14 11:12:33;;;;;;;35.70;33.35;;;13.00;99.90;;;;;;4962414;28;20030;-82
2024/01/14 11:15:29;;;;;;;38.55;35.85;;;13.00;99.90;;;;;;4978997;28;20022;-84
2024/01/14 11:17:58;;;;;;;36.97;34.55;;;13.00;99.90;;;;;;4962509;28;20688;-83
2024/01/14 11:20:31;;;;;;;36.88;34.47;;;12.90;99.90;;;;;;4985209;28;20026;-81
2024/01/14 11:22:57;;;;;;;38.00;35.53;;;12.90;99.90;;;;;;4981559;28;20165;-83
2024/01/14 11:25:32;;;;;;;38.40;35.70;;;12.80;99.90;;;;;;4997813;28;20025;-82
2024/01/14 11:28:04;;;;;;;38.00;35.55;;;12.70;99.90;;;;;;4981516;28;20395;-83
2024/01/14 11:30:51;;;;;;;37.78;35.13;;;12.50;99.90;;;;;;4981725;28;20586;-83
2024/01/14 11:33:42;;;;;;;38.33;35.45;;;12.50;99.90;;;;;;4978080;28;20034;-83
2024/01/14 11:36:10;;;;;;;36.85;34.38;;;12.70;99.90;;;;;;4978078;28;20030;-81
2024/01/14 11:38:49;;;;;;;38.10;35.50;;;13.00;99.90;;;;;;4981158;28;20082;-82
2024/01/14 11:41:36;;;;;;;36.25;33.75;;;13.10;99.90;;;;;;4997454;28;20434;-85
2024/01/14 11:44:04;;;;;;;36.70;34.10;;;13.10;99.90;;;;;;5013796;28;20018;-82
2024/01/14 11:46:34;;;;;;;36.80;34.20;;;13.20;99.90;;;;;;4997182;28;20034;-80
2024/01/14 11:49:07;;;;;;;36.55;33.95;;;13.20;99.90;;;;;;4980873;28;20045;-81
2024/01/14 11:51:39;;;;;;;37.00;34.28;;;13.20;99.90;;;;;;4995476;28;20053;-80
2024/01/14 11:54:09;;;;;;;36.05;33.38;;;13.30;99.90;;;;;;4975290;28;20033;-83
2024/01/14 11:56:39;;;;;;;35.53;33.10;;;13.30;99.90;;;;;;4981309;28;20479;-81
2024/01/14 11:59:11;;;;;;;37.65;34.63;;;13.30;99.90;;;;;;4997042;28;20026;-82
2024/01/14 12:01:38;;;;;;;36.45;33.78;;;13.20;99.90;;;;;;4980624;28;20076;-82
2024/01/14 12:04:10;;;;;;;35.72;33.20;;;13.20;99.90;;;;;;5014641;28;20029;-81
2024/01/14 12:06:47;;;;;;;35.67;33.05;;;13.10;99.90;;;;;;4996515;28;20049;-81
2024/01/14 12:09:17;;;;;;;35.15;32.58;;;13.30;99.90;;;;;;4980607;28;20570;-81
2024/01/14 12:11:43;;;;;;;35.33;33.13;;;13.20;99.90;;;;;;4996978;28;20033;-82
2024/01/14 12:14:13;;;;;;;35.90;33.40;;;13.30;99.90;;;;;;4996802;28;20217;-81
2024/01/14 12:16:43;;;;;;;36.47;33.97;;;13.30;99.90;;;;;;5014055;28;20034;-81
2024/01/14 12:19:20;;;;;;;36.05;33.45;;;13.30;99.90;;;;;;4988059;28;20026;-81
2024/01/14 12:21:46;;;;;;;36.70;34.17;;;13.30;99.90;;;;;;4976957;28;20030;-81
2024/01/14 12:24:13;;;;;;;36.67;34.17;;;13.10;99.90;;;;;;5001663;28;20026;-81
2024/01/14 12:26:44;;;;;;;34.75;32.55;;;13.10;99.90;;;;;;4996365;28;20033;-81
2024/01/14 12:29:11;;;;;;;35.45;32.95;;;12.90;99.90;;;;;;4996395;28;20034;-81
2024/01/14 12:31:45;;;;;;;37.38;34.17;;;12.80;99.90;;;;;;4980237;28;20021;-82
2024/01/14 12:34:11;;;;;;;35.45;32.95;;;12.80;99.90;;;;;;4989794;28;20041;-84
2024/01/14 12:36:38;;;;;;;33.70;31.60;;;12.70;99.90;;;;;;4987655;28;20061;-81